Time;durP1;ratioP1;P1;durP2;ratioP2;P2;SDS_P1;SDS_P2;PMS_P1;PMS_P2;Temp;Humidity;BMP_temperature;BMP_pressure;BME280_temperature;BME280_humidity;BME280_pressure;Samples;Min_cycle;Max_cycle;Signal;HPM_P1;HPM_P2
2023/04/22 00:01:00;;;;;;;10.27;6.43;;;;;;;7.48;100.00;100512.84;4866441;29;20115;-77
2023/04/22 00:03:28;;;;;;;12.45;6.38;;;;;;;7.31;100.00;100508.63;4855330;29;20034;-78
2023/04/22 00:05:54;;;;;;;9.50;6.03;;;;;;;7.28;100.00;100507.94;4900503;29;20408;-78
2023/04/22 00:08:20;;;;;;;9.63;6.68;;;;;;;7.29;100.00;100509.69;4875746;29;20036;-79
2023/04/22 00:10:45;;;;;;;13.48;6.32;;;;;;;7.20;100.00;100505.78;4877350;29;20048;-77
2023/04/22 00:13:13;;;;;;;9.18;7.10;;;;;;;7.32;100.00;100514.94;4904911;29;20393;-77
2023/04/22 00:15:39;;;;;;;14.52;7.18;;;;;;;7.26;100.00;100512.63;4884747;29;20059;-78
2023/04/22 00:18:06;;;;;;;10.73;7.20;;;;;;;7.30;100.00;100509.59;4900516;29;20076;-77
2023/04/22 00:20:31;;;;;;;16.30;7.38;;;;;;;7.34;100.00;100502.06;4901235;29;20040;-77
2023/04/22 00:22:57;;;;;;;11.55;6.47;;;;;;;7.28;100.00;100495.22;4914847;29;20047;-76
2023/04/22 00:25:22;;;;;;;14.63;6.55;;;;;;;7.41;100.00;100497.06;4909538;29;20039;-77
2023/04/22 00:27:48;;;;;;;9.73;6.97;;;;;;;7.39;100.00;100482.69;4914766;29;20963;-77
2023/04/22 00:30:14;;;;;;;10.65;6.28;;;;;;;7.46;100.00;100487.59;4917891;29;20036;-77
2023/04/22 00:32:39;;;;;;;7.63;5.70;;;;;;;7.58;100.00;100494.00;4917333;29;20040;-76
2023/04/22 00:35:05;;;;;;;8.65;6.03;;;;;;;7.48;100.00;100492.94;4914581;29;20035;-77
2023/04/22 00:37:30;;;;;;;7.72;5.90;;;;;;;7.32;100.00;100504.91;4935382;29;20050;-76
2023/04/22 00:39:56;;;;;;;8.30;5.75;;;;;;;7.38;100.00;100492.72;4891106;29;20075;-77
2023/04/22 00:42:22;;;;;;;8.88;6.35;;;;;;;7.45;100.00;100494.00;4882630;29;20047;-76
2023/04/22 00:44:50;;;;;;;8.65;6.25;;;;;;;7.44;100.00;100505.00;4883613;29;20039;-76
2023/04/22 00:47:16;;;;;;;10.85;6.85;;;;;;;7.55;100.00;100497.78;4900249;29;20115;-76
2023/04/22 00:49:42;;;;;;;12.13;7.15;;;;;;;7.65;100.00;100491.69;4890207;29;20172;-77
2023/04/22 00:52:07;;;;;;;12.57;7.22;;;;;;;7.73;100.00;100490.13;4882670;29;20444;-77
2023/04/22 00:54:34;;;;;;;16.38;8.40;;;;;;;7.87;100.00;100480.97;4900565;29;20055;-77
2023/04/22 00:57:01;;;;;;;17.45;8.65;;;;;;;7.86;100.00;100481.06;4877687;29;20175;-77
2023/04/22 00:59:27;;;;;;;12.88;8.98;;;;;;;7.90;100.00;100480.75;4878981;29;20051;-77
2023/04/22 01:01:53;;;;;;;13.43;9.32;;;;;;;7.91;100.00;100487.91;4875901;29;20045;-77
2023/04/22 01:04:20;;;;;;;15.23;9.57;;;;;;;7.94;100.00;100486.81;4881817;29;20045;-76
2023/04/22 01:06:46;;;;;;;15.93;9.60;;;;;;;7.93;100.00;100484.22;4897336;29;20048;-76
2023/04/22 01:09:12;;;;;;;21.70;9.85;;;;;;;7.96;100.00;100486.72;4877257;29;20048;-77
2023/04/22 01:11:38;;;;;;;16.50;10.07;;;;;;;7.99;100.00;100483.75;4892848;29;20044;-77
2023/04/22 01:14:03;;;;;;;16.77;10.57;;;;;;;7.96;100.00;100489.44;4893970;29;20033;-77
2023/04/22 01:16:32;;;;;;;17.30;10.63;;;;;;;8.07;100.00;100487.66;4883616;29;20028;-77
2023/04/22 01:18:59;;;;;;;18.65;10.75;;;;;;;8.11;100.00;100480.09;4897252;29;20628;-77
2023/04/22 01:21:25;;;;;;;17.95;11.70;;;;;;;8.08;100.00;100475.78;4891026;29;20092;-77
2023/04/22 01:23:51;;;;;;;18.00;11.07;;;;;;;8.06;100.00;100468.69;4889060;29;20044;-77
2023/04/22 01:26:17;;;;;;;16.20;11.65;;;;;;;8.14;100.00;100460.78;4898210;29;20055;-77
2023/04/22 01:28:43;;;;;;;22.17;11.20;;;;;;;8.11;100.00;100463.75;4905202;29;20117;-77
2023/04/22 01:31:08;;;;;;;19.05;11.88;;;;;;;8.19;100.00;100466.75;4878416;29;20119;-77
2023/04/22 01:33:34;;;;;;;16.38;12.60;;;;;;;8.11;100.00;100463.75;4889265;29;20040;-77
2023/04/22 01:35:59;;;;;;;21.70;13.15;;;;;;;8.10;100.00;100446.53;4893271;29;20501;-76
2023/04/22 01:38:25;;;;;;;18.95;13.32;;;;;;;8.20;100.00;100454.00;4879479;29;20037;-77
2023/04/22 01:40:50;;;;;;;19.27;13.57;;;;;;;8.15;100.00;100450.75;4880137;29;20037;-77
2023/04/22 01:43:16;;;;;;;19.83;14.07;;;;;;;8.23;100.00;100456.50;4905188;29;20064;-78
2023/04/22 01:45:41;;;;;;;19.15;14.20;;;;;;;8.21;100.00;100456.59;4896674;29;20396;-78
2023/04/22 01:48:09;;;;;;;21.73;14.55;;;;;;;8.22;100.00;100454.75;4896140;29;20032;-77
2023/04/22 01:50:35;;;;;;;21.42;15.07;;;;;;;8.16;100.00;100453.34;4861868;29;20056;-77
2023/04/22 01:53:00;;;;;;;22.60;14.93;;;;;;;8.19;100.00;100455.84;4892367;29;20037;-77
2023/04/22 01:55:26;;;;;;;21.10;14.15;;;;;;;8.24;100.00;100458.25;4897137;29;20496;-77
2023/04/22 01:57:52;;;;;;;18.63;14.00;;;;;;;8.24;100.00;100458.25;4907615;29;20068;-77
2023/04/22 02:00:18;;;;;;;23.92;15.45;;;;;;;8.27;100.00;100455.28;4884336;29;20121;-78
2023/04/22 02:02:43;;;;;;;22.95;13.85;;;;;;;8.32;100.00;100463.97;4883312;29;20346;-78
2023/04/22 02:05:09;;;;;;;21.25;14.32;;;;;;;8.34;100.00;100461.13;4913823;29;20040;-77
2023/04/22 02:07:35;;;;;;;21.42;14.20;;;;;;;8.37;100.00;100467.22;4899621;29;20044;-77
2023/04/22 02:10:04;;;;;;;20.20;14.52;;;;;;;8.41;100.00;100459.66;4914276;29;20038;-77
2023/04/22 02:12:31;;;;;;;23.23;14.63;;;;;;;8.45;100.00;100464.81;4884036;29;20032;-77
2023/04/22 02:14:57;;;;;;;22.88;15.00;;;;;;;8.46;100.00;100460.22;4891899;29;20044;-77
2023/04/22 02:17:22;;;;;;;20.98;15.40;;;;;;;8.54;100.00;100465.94;4898997;29;20362;-78
2023/04/22 02:19:48;;;;;;;30.15;15.40;;;;;;;8.51;100.00;100466.22;4894301;29;20055;-78
2023/04/22 02:22:13;;;;;;;19.08;13.48;;;;;;;8.57;100.00;100462.13;4902929;29;20045;-78
2023/04/22 02:24:39;;;;;;;23.17;16.00;;;;;;;8.57;100.00;100459.41;4913865;29;20047;-77
2023/04/22 02:27:05;;;;;;;24.00;15.40;;;;;;;8.58;100.00;100451.09;4913710;29;20037;-77
2023/04/22 02:29:31;;;;;;;24.10;16.05;;;;;;;8.60;100.00;100451.84;4868760;29;20032;-77
2023/04/22 02:32:00;;;;;;;25.85;15.48;;;;;;;8.61;100.00;100442.69;4884283;29;20048;-77
2023/04/22 02:34:28;;;;;;;31.45;15.10;;;;;;;8.68;100.00;100440.34;4879381;29;20519;-78
2023/04/22 02:36:53;;;;;;;26.52;15.52;;;;;;;8.69;100.00;100447.56;4886487;29;20119;-77
2023/04/22 02:39:19;;;;;;;24.77;15.35;;;;;;;8.61;100.00;100442.69;4901828;29;20127;-77
2023/04/22 02:41:44;;;;;;;24.13;15.35;;;;;;;8.63;100.00;100445.28;4889204;29;20040;-77
2023/04/22 02:44:10;;;;;;;25.05;14.90;;;;;;;8.62;100.00;100447.16;4890848;29;20148;-77
2023/04/22 02:46:35;;;;;;;21.55;14.48;;;;;;;8.69;100.00;100450.28;4917829;29;20575;-77
2023/04/22 02:49:00;;;;;;;25.92;16.00;;;;;;;8.74;100.00;100436.25;4876175;29;21930;-77
2023/04/22 02:51:26;;;;;;;21.40;15.13;;;;;;;8.75;100.00;100435.28;4902426;29;20039;-77
2023/04/22 02:53:52;;;;;;;21.95;15.05;;;;;;;8.80;100.00;100433.03;4893879;29;20036;-77
2023/04/22 02:56:17;;;;;;;21.85;15.25;;;;;;;8.77;100.00;100419.63;4892833;29;20135;-78
2023/04/22 02:58:43;;;;;;;24.50;14.75;;;;;;;8.83;100.00;100436.41;4897936;29;20037;-77
2023/04/22 03:01:08;;;;;;;23.33;14.70;;;;;;;8.86;100.00;100429.84;4867896;29;20061;-77
2023/04/22 03:03:34;;;;;;;22.42;14.07;;;;;;;8.86;100.00;100432.56;4875774;29;20037;-77
2023/04/22 03:06:00;;;;;;;25.45;15.30;;;;;;;8.85;100.00;100421.78;4866397;29;20116;-77
2023/04/22 03:08:26;;;;;;;23.77;14.77;;;;;;;8.89;100.00;100426.00;4865528;29;20136;-77
2023/04/22 03:10:51;;;;;;;27.63;14.98;;;;;;;8.90;100.00;100417.66;4866609;29;20133;-77
2023/04/22 03:13:16;;;;;;;24.20;15.55;;;;;;;8.97;100.00;100423.53;4865651;29;20048;-77
2023/04/22 03:15:42;;;;;;;22.58;15.18;;;;;;;9.00;100.00;100423.25;4875895;29;20052;-76
2023/04/22 03:18:08;;;;;;;23.88;15.18;;;;;;;9.01;100.00;100416.81;4854850;29;20097;-77
2023/04/22 03:20:34;;;;;;;23.20;15.98;;;;;;;8.96;100.00;100413.59;4874487;29;20123;-77
2023/04/22 03:23:00;;;;;;;23.83;15.32;;;;;;;8.94;100.00;100411.00;4900839;29;20473;-77
2023/04/22 03:25:28;;;;;;;28.48;16.23;;;;;;;8.94;100.00;100402.78;4863907;29;20064;-77
2023/04/22 03:27:54;;;;;;;25.48;16.60;;;;;;;8.94;100.00;100408.25;4854947;29;20076;-77
2023/04/22 03:30:19;;;;;;;27.70;17.42;;;;;;;8.93;100.00;100400.19;4870832;29;20033;-77
2023/04/22 03:32:44;;;;;;;26.10;16.83;;;;;;;8.93;100.00;100389.25;4881530;29;20047;-77
2023/04/22 03:35:10;;;;;;;25.20;17.10;;;;;;;8.95;100.00;100401.81;4857665;29;20043;-77
2023/04/22 03:37:36;;;;;;;26.88;17.08;;;;;;;8.96;100.00;100395.34;4877773;29;20103;-77
2023/04/22 03:40:01;;;;;;;26.75;17.55;;;;;;;8.93;100.00;100398.31;4876752;29;20477;-77
2023/04/22 03:42:26;;;;;;;28.23;17.85;;;;;;;8.94;100.00;100396.47;4892111;29;20044;-76
2023/04/22 03:44:52;;;;;;;28.58;17.70;;;;;;;8.90;100.00;100384.03;4897390;29;20108;-77
2023/04/22 03:47:17;;;;;;;32.88;17.85;;;;;;;8.96;100.00;100387.16;4867524;29;20063;-77
2023/04/22 03:49:43;;;;;;;28.70;17.35;;;;;;;8.93;100.00;100386.53;4848771;29;20499;-77
2023/04/22 03:52:08;;;;;;;31.25;18.58;;;;;;;8.93;100.00;100378.34;4877639;29;20044;-76
2023/04/22 03:54:34;;;;;;;32.35;17.85;;;;;;;8.94;100.00;100375.50;4882312;29;20040;-76
2023/04/22 03:56:59;;;;;;;30.10;18.48;;;;;;;8.91;100.00;100380.34;4891419;29;20056;-77
2023/04/22 03:59:25;;;;;;;33.50;17.85;;;;;;;8.92;100.00;100382.94;4881501;29;20051;-77
2023/04/22 04:01:52;;;;;;;29.50;17.83;;;;;;;8.91;100.00;100378.47;4898468;29;20142;-78
2023/04/22 04:04:18;;;;;;;31.33;18.38;;;;;;;8.92;100.00;100385.69;4878947;29;20032;-78
2023/04/22 04:06:43;;;;;;;29.27;18.58;;;;;;;8.88;100.00;100365.06;4862817;29;20048;-78
2023/04/22 04:09:09;;;;;;;26.80;18.15;;;;;;;8.88;100.00;100372.38;4896565;29;20044;-79
2023/04/22 04:11:35;;;;;;;30.98;18.48;;;;;;;8.84;100.00;100371.78;4873804;29;20037;-79
2023/04/22 04:14:02;;;;;;;29.23;18.13;;;;;;;8.90;100.00;100371.25;4886685;29;20567;-78
2023/04/22 04:16:27;;;;;;;29.92;19.10;;;;;;;8.94;100.00;100366.44;4892347;29;20488;-78
2023/04/22 04:18:53;;;;;;;31.45;18.52;;;;;;;8.93;100.00;100365.56;4884489;29;20041;-79
2023/04/22 04:21:18;;;;;;;28.42;17.88;;;;;;;8.94;100.00;100356.38;4889049;29;20135;-78
2023/04/22 04:23:45;;;;;;;26.58;17.35;;;;;;;8.92;100.00;100352.91;4897461;29;20044;-78
2023/04/22 04:26:11;;;;;;;28.30;17.17;;;;;;;8.85;100.00;100356.25;4880708;29;20057;-78
2023/04/22 04:28:40;;;;;;;27.77;17.15;;;;;;;8.75;100.00;100354.25;4882494;29;20146;-78
2023/04/22 04:31:06;;;;;;;27.33;16.55;;;;;;;8.73;100.00;100347.19;4897681;29;20036;-78
2023/04/22 04:33:35;;;;;;;26.52;16.95;;;;;;;8.73;100.00;100356.22;4886184;29;20029;-78
2023/04/22 04:36:02;;;;;;;30.33;17.88;;;;;;;8.74;100.00;100355.25;4876283;29;20076;-78
2023/04/22 04:38:27;;;;;;;30.02;19.27;;;;;;;8.73;100.00;100353.50;4891179;29;20041;-78
2023/04/22 04:40:53;;;;;;;27.95;18.10;;;;;;;8.73;100.00;100352.66;4894733;29;20080;-78
2023/04/22 04:43:19;;;;;;;29.20;18.48;;;;;;;8.72;100.00;100356.34;4909039;29;20067;-78
2023/04/22 04:45:47;;;;;;;30.55;19.40;;;;;;;8.76;100.00;100358.72;4882149;29;20124;-78
2023/04/22 04:48:13;;;;;;;31.55;18.75;;;;;;;8.72;100.00;100353.63;4893566;29;20104;-77
2023/04/22 04:50:42;;;;;;;33.85;19.33;;;;;;;8.81;100.00;100363.81;4880272;29;20041;-77
2023/04/22 04:53:09;;;;;;;33.13;19.55;;;;;;;8.87;100.00;100357.00;4893345;29;20041;-77
2023/04/22 04:55:34;;;;;;;30.35;19.15;;;;;;;8.91;100.00;100359.34;4881585;29;20039;-78
2023/04/22 04:58:03;;;;;;;30.77;19.33;;;;;;;8.84;100.00;100360.84;4887782;29;20517;-78
2023/04/22 05:00:29;;;;;;;35.13;19.63;;;;;;;8.88;100.00;100356.00;4883929;29;20067;-77
2023/04/22 05:02:54;;;;;;;30.45;19.45;;;;;;;8.88;100.00;100354.13;4894516;29;20052;-77
2023/04/22 05:05:20;;;;;;;37.08;19.63;;;;;;;8.95;100.00;100351.78;4898760;29;20100;-77
2023/04/22 05:07:46;;;;;;;30.98;20.30;;;;;;;8.86;100.00;100345.22;4898925;29;20381;-77
2023/04/22 05:10:14;;;;;;;30.88;20.23;;;;;;;8.93;100.00;100354.63;4904917;29;20144;-76
2023/04/22 05:12:40;;;;;;;35.00;19.25;;;;;;;8.98;100.00;100346.06;4879432;29;20378;-77
2023/04/22 05:15:06;;;;;;;39.08;20.80;;;;;;;8.92;100.00;100352.03;4881999;29;20040;-76
2023/04/22 05:17:31;;;;;;;34.53;19.88;;;;;;;8.92;100.00;100354.75;4872796;29;20041;-76
2023/04/22 05:19:57;;;;;;;32.50;19.27;;;;;;;8.85;100.00;100362.56;4879403;29;20043;-77
2023/04/22 05:22:23;;;;;;;30.10;19.85;;;;;;;8.88;100.00;100351.41;4893972;29;20038;-76
2023/04/22 05:24:48;;;;;;;33.97;19.48;;;;;;;8.98;100.00;100346.94;4869291;29;20111;-77
2023/04/22 05:27:14;;;;;;;31.05;19.00;;;;;;;8.93;100.00;100351.03;4863099;29;20037;-76
2023/04/22 05:29:39;;;;;;;37.88;19.08;;;;;;;8.93;100.00;100353.78;4887303;29;20032;-77
2023/04/22 05:32:07;;;;;;;37.10;20.25;;;;;;;8.90;100.00;100354.88;4920150;29;20429;-76
2023/04/22 05:34:33;;;;;;;35.25;20.83;;;;;;;9.01;100.00;100354.03;4896658;29;20404;-76
2023/04/22 05:36:58;;;;;;;35.13;20.73;;;;;;;9.03;100.00;100354.75;4868338;29;20128;-77
2023/04/22 05:39:23;;;;;;;36.40;21.80;;;;;;;9.14;100.00;100357.50;4898105;29;20449;-77
2023/04/22 05:41:49;;;;;;;40.17;23.23;;;;;;;9.16;100.00;100358.22;4893066;29;20389;-77
2023/04/22 05:44:16;;;;;;;35.72;22.60;;;;;;;9.31;100.00;100357.97;4890909;29;20071;-81
2023/04/22 05:46:41;;;;;;;39.53;23.58;;;;;;;9.41;100.00;100356.22;4881121;29;20029;-77
2023/04/22 05:49:10;;;;;;;44.70;24.98;;;;;;;9.50;100.00;100354.59;4879790;29;20501;-78
2023/04/22 05:51:35;;;;;;;40.08;24.15;;;;;;;9.62;100.00;100356.31;4868413;29;20140;-78
2023/04/22 05:54:00;;;;;;;42.25;23.98;;;;;;;9.68;100.00;100355.81;4878659;29;20112;-80
2023/04/22 05:56:26;;;;;;;43.80;22.95;;;;;;;9.81;100.00;100365.72;4882062;29;20136;-78
2023/04/22 05:58:52;;;;;;;41.53;23.38;;;;;;;9.92;100.00;100368.44;4906739;29;20633;-76
2023/04/22 06:01:17;;;;;;;39.65;23.50;;;;;;;10.04;100.00;100366.50;4933601;29;20094;-76
2023/04/22 06:03:43;;;;;;;42.92;23.48;;;;;;;10.16;100.00;100362.72;4900757;29;20063;-77
2023/04/22 06:06:08;;;;;;;41.35;23.42;;;;;;;10.28;100.00;100361.69;4904408;29;20039;-77
2023/04/22 06:08:33;;;;;;;38.70;22.75;;;;;;;10.51;100.00;100368.91;4907135;29;20045;-77
2023/04/22 06:10:59;;;;;;;39.50;23.73;;;;;;;10.79;100.00;100365.50;4888173;29;20184;-76
2023/04/22 06:13:25;;;;;;;36.67;22.92;;;;;;;11.09;100.00;100363.78;4898759;29;20141;-77
2023/04/22 06:15:50;;;;;;;43.40;23.45;;;;;;;10.99;100.00;100362.88;4890064;29;20044;-76
2023/04/22 06:18:16;;;;;;;38.42;22.77;;;;;;;11.15;100.00;100366.00;4910819;29;20377;-77
2023/04/22 06:20:41;;;;;;;35.78;21.25;;;;;;;11.48;100.00;100350.22;4937506;29;20067;-77
2023/04/22 06:23:07;;;;;;;37.15;21.83;;;;;;;11.91;100.00;100354.53;4884919;29;20032;-77
2023/04/22 06:25:33;;;;;;;36.70;21.90;;;;;;;12.19;100.00;100346.47;4878928;29;20039;-77
2023/04/22 06:27:58;;;;;;;32.65;20.65;;;;;;;12.50;100.00;100355.38;4904883;29;20044;-77
2023/04/22 06:30:24;;;;;;;36.88;20.70;;;;;;;12.54;100.00;100350.47;4906164;29;20051;-77
2023/04/22 06:32:50;;;;;;;34.22;19.90;;;;;;;12.79;100.00;100349.00;4864287;29;20232;-77
2023/04/22 06:35:16;;;;;;;33.70;19.17;;;;;;;12.87;100.00;100346.38;4872381;29;20043;-77
2023/04/22 06:37:41;;;;;;;28.38;18.33;;;;;;;13.21;100.00;100347.69;4880557;29;20028;-77
2023/04/22 06:40:08;;;;;;;29.17;18.48;;;;;;;12.68;100.00;100340.91;4896430;29;20044;-77
2023/04/22 06:42:33;;;;;;;28.83;19.08;;;;;;;13.06;100.00;100336.31;4896024;29;20048;-76
2023/04/22 06:44:59;;;;;;;24.02;17.15;;;;;;;13.54;100.00;100346.25;4911825;29;20032;-76
2023/04/22 06:47:24;;;;;;;25.08;14.90;;;;;;;13.35;100.00;100341.72;4877992;29;20135;-78
2023/04/22 06:49:51;;;;;;;22.85;14.30;;;;;;;13.47;100.00;100345.13;4886856;29;20040;-78
2023/04/22 06:52:17;;;;;;;26.73;14.75;;;;;;;14.24;100.00;100330.97;4869450;29;20045;-80
2023/04/22 06:54:42;;;;;;;24.70;14.85;;;;;;;13.87;100.00;100332.88;4889908;29;20055;-78
2023/04/22 06:57:08;;;;;;;21.30;13.90;;;;;;;14.20;100.00;100335.06;4880617;29;20053;-79
2023/04/22 06:59:33;;;;;;;27.52;14.77;;;;;;;13.97;100.00;100344.66;4897647;29;20388;-78
2023/04/22 07:01:59;;;;;;;23.25;13.02;;;;;;;14.70;100.00;100332.56;4905995;29;20113;-78
2023/04/22 07:04:26;;;;;;;21.02;13.68;;;;;;;14.71;100.00;100333.47;4886713;29;20032;-78
2023/04/22 07:06:52;;;;;;;24.02;13.85;;;;;;;14.52;100.00;100327.06;4918513;29;20514;-79
2023/04/22 07:09:17;;;;;;;24.38;13.82;;;;;;;14.31;100.00;100334.81;4893148;29;20036;-77
2023/04/22 07:11:43;;;;;;;20.67;12.95;;;;;;;14.45;100.00;100336.16;4883460;29;20431;-79
2023/04/22 07:14:08;;;;;;;21.20;13.52;;;;;;;13.77;100.00;100330.19;4900745;29;20127;-79
2023/04/22 07:16:34;;;;;;;20.45;13.50;;;;;;;13.70;100.00;100331.81;4869610;29;20032;-78
2023/04/22 07:18:59;;;;;;;15.27;11.77;;;;;;;14.10;100.00;100333.25;4937996;29;20063;-78
2023/04/22 07:21:25;;;;;;;23.20;12.48;;;;;;;14.66;100.00;100324.81;4920580;29;20122;-78
2023/04/22 07:23:50;;;;;;;19.63;12.60;;;;;;;15.01;100.00;100320.19;4905486;29;20090;-79
2023/04/22 07:26:16;;;;;;;17.02;11.43;;;;;;;15.18;100.00;100302.72;4898390;29;20124;-78
2023/04/22 07:28:41;;;;;;;19.58;11.85;;;;;;;15.37;100.00;100311.75;4900023;29;20071;-80
2023/04/22 07:31:10;;;;;;;19.35;11.88;;;;;;;15.79;100.00;100309.00;4882773;29;20036;-78
2023/04/22 07:33:35;;;;;;;17.73;11.75;;;;;;;16.03;100.00;100318.34;4885092;29;20441;-79
2023/04/22 07:36:01;;;;;;;17.67;11.77;;;;;;;15.56;100.00;100322.53;4901758;29;20043;-78
2023/04/22 07:38:26;;;;;;;16.95;10.57;;;;;;;15.04;100.00;100330.91;4870428;29;20039;-79
2023/04/22 07:40:52;;;;;;;17.98;12.10;;;;;;;14.66;100.00;100330.31;4886667;29;20535;-78
2023/04/22 07:43:17;;;;;;;19.02;11.75;;;;;;;14.68;100.00;100322.75;4885144;29;20511;-79
2023/04/22 07:45:43;;;;;;;22.85;11.75;;;;;;;14.60;100.00;100317.19;4884145;29;20396;-79
2023/04/22 07:48:09;;;;;;;16.90;9.55;;;;;;;14.76;100.00;100314.53;4901420;29;20036;-78
2023/04/22 07:50:34;;;;;;;18.15;11.18;;;;;;;15.03;100.00;100324.50;4918458;29;20040;-78
2023/04/22 07:53:00;;;;;;;15.70;10.60;;;;;;;14.98;100.00;100318.63;4902744;29;20040;-79
2023/04/22 07:55:26;;;;;;;19.33;10.10;;;;;;;15.63;100.00;100325.47;4901249;29;20039;-78
2023/04/22 07:57:51;;;;;;;17.08;10.57;;;;;;;15.80;100.00;100321.75;4886295;29;20138;-80
2023/04/22 08:00:17;;;;;;;14.95;10.23;;;;;;;16.38;100.00;100321.84;4889043;29;20052;-79
2023/04/22 08:02:42;;;;;;;15.48;9.25;;;;;;;16.52;100.00;100331.31;4886633;29;20043;-79
2023/04/22 08:05:09;;;;;;;13.98;9.07;;;;;;;16.11;100.00;100309.22;4869651;29;20092;-79
2023/04/22 08:07:35;;;;;;;19.10;10.02;;;;;;;16.60;100.00;100323.03;4917539;29;20036;-77
2023/04/22 08:10:01;;;;;;;20.92;9.98;;;;;;;16.58;100.00;100319.56;4899769;29;20055;-77
2023/04/22 08:12:26;;;;;;;12.75;9.05;;;;;;;16.86;100.00;100313.69;4884784;29;20043;-78
2023/04/22 08:14:52;;;;;;;14.65;10.75;;;;;;;17.11;100.00;100306.19;4869671;29;20039;-77
2023/04/22 08:17:20;;;;;;;14.07;9.48;;;;;;;17.62;100.00;100311.34;4900771;29;20107;-79
2023/04/22 08:19:47;;;;;;;11.57;7.43;;;;;;;17.30;100.00;100304.03;4889696;29;20042;-78
2023/04/22 08:22:14;;;;;;;12.80;8.82;;;;;;;17.13;100.00;100298.56;4900287;29;20114;-77
2023/04/22 08:24:39;;;;;;;13.32;8.10;;;;;;;17.47;100.00;100291.84;4909080;29;20047;-78
2023/04/22 08:27:05;;;;;;;11.85;8.23;;;;;;;17.83;100.00;100288.53;4883272;29;20036;-78
2023/04/22 08:29:31;;;;;;;13.07;8.57;;;;;;;17.59;100.00;100278.47;4900635;29;20072;-79
2023/04/22 08:31:56;;;;;;;12.93;6.85;;;;;;;17.80;100.00;100292.53;4869188;29;20495;-78
2023/04/22 08:34:23;;;;;;;11.23;7.50;;;;;;;18.44;100.00;100291.38;4893888;29;20518;-78
2023/04/22 08:36:49;;;;;;;9.90;6.63;;;;;;;17.75;100.00;100289.44;4910397;29;20063;-78
2023/04/22 08:39:14;;;;;;;13.32;7.70;;;;;;;17.35;100.00;100274.78;4884850;29;20074;-78
2023/04/22 08:41:42;;;;;;;14.23;7.82;;;;;;;18.01;100.00;100288.28;4892079;29;20051;-78
2023/04/22 08:44:08;;;;;;;8.00;6.10;;;;;;;18.30;100.00;100283.88;4898218;29;20062;-79
2023/04/22 08:46:34;;;;;;;10.48;5.70;;;;;;;18.54;100.00;100280.03;4881776;29;20425;-78
2023/04/22 08:49:03;;;;;;;8.60;6.03;;;;;;;18.49;100.00;100272.28;4872098;29;20035;-79
2023/04/22 08:51:32;;;;;;;10.63;5.75;;;;;;;18.89;100.00;100274.88;4881149;29;20064;-79
2023/04/22 08:53:58;;;;;;;7.60;5.93;;;;;;;19.13;100.00;100267.31;4901483;29;20489;-79
2023/04/22 08:56:24;;;;;;;9.43;5.88;;;;;;;18.87;100.00;100269.50;4908357;29;20119;-78
2023/04/22 08:58:51;;;;;;;10.88;5.50;;;;;;;18.56;100.00;100247.44;4892515;29;20047;-77
2023/04/22 09:01:17;;;;;;;10.82;5.45;;;;;;;19.32;100.00;100240.88;4886681;29;20032;-78
2023/04/22 09:03:43;;;;;;;7.70;5.63;;;;;;;18.49;100.00;100240.94;4896774;29;20041;-78
2023/04/22 09:06:10;;;;;;;8.98;5.28;;;;;;;18.67;100.00;100259.97;4878101;29;20043;-80
2023/04/22 09:08:36;;;;;;;7.93;5.10;;;;;;;18.94;98.84;100257.63;4865784;29;20180;-78
2023/04/22 09:11:04;;;;;;;10.75;4.85;;;;;;;18.71;98.55;100262.19;4890368;29;20127;-79
2023/04/22 09:13:30;;;;;;;7.53;5.32;;;;;;;18.97;100.00;100255.38;4876411;29;20036;-78
2023/04/22 09:15:55;;;;;;;8.38;5.15;;;;;;;18.67;100.00;100252.50;4904464;29;20167;-79
2023/04/22 09:18:20;;;;;;;7.43;4.90;;;;;;;19.03;97.73;100254.56;4893650;29;20047;-80
2023/04/22 09:20:47;;;;;;;7.80;5.15;;;;;;;19.18;100.00;100254.56;4866438;29;20040;-79
2023/04/22 09:23:13;;;;;;;6.35;4.50;;;;;;;18.61;99.13;100249.63;4881811;29;20037;-78
2023/04/22 09:25:39;;;;;;;7.18;5.32;;;;;;;18.41;100.00;100252.94;4880764;29;20527;-78
2023/04/22 09:28:10;;;;;;;7.10;5.30;;;;;;;18.39;100.00;100255.06;4914460;29;20040;-79
2023/04/22 09:30:36;;;;;;;10.48;5.07;;;;;;;19.14;100.00;100247.69;4896900;29;20509;-79
2023/04/22 09:33:03;;;;;;;6.75;4.85;;;;;;;19.39;100.00;100247.38;4877900;29;20124;-79
2023/04/22 09:35:38;;;;;;;8.73;4.25;;;;;;;19.33;88.35;100248.13;4928222;29;20043;-79
2023/04/22 09:38:06;;;;;;;12.63;5.32;;;;;;;19.27;93.27;100250.63;4919145;29;20047;-79
2023/04/22 09:40:33;;;;;;;7.85;4.40;;;;;;;19.04;94.07;100242.44;4920745;29;20032;-79
2023/04/22 09:43:02;;;;;;;12.65;5.03;;;;;;;19.00;89.40;100249.41;4897907;29;20074;-80
2023/04/22 09:45:35;;;;;;;6.65;4.40;;;;;;;19.03;96.62;100240.69;4913117;29;20036;-80
2023/04/22 09:48:14;;;;;;;6.80;4.40;;;;;;;19.68;85.45;100251.09;4878863;29;20036;-79
2023/04/22 09:50:48;;;;;;;7.20;5.03;;;;;;;19.86;85.70;100250.69;4899367;29;20388;-80
2023/04/22 09:53:15;;;;;;;11.25;5.32;;;;;;;20.14;84.37;100251.63;4929632;29;20036;-79
2023/04/22 09:55:54;;;;;;;7.53;5.43;;;;;;;19.96;82.99;100249.31;4918500;29;20028;-79
2023/04/22 09:58:26;;;;;;;9.30;5.85;;;;;;;19.69;84.60;100245.34;4911175;29;20060;-79
2023/04/22 10:00:56;;;;;;;6.30;5.32;;;;;;;19.13;89.72;100243.19;4896889;29;20071;-81
2023/04/22 10:03:22;;;;;;;7.55;6.00;;;;;;;19.16;92.03;100250.28;4923265;29;20094;-81
2023/04/22 10:05:47;;;;;;;9.05;5.50;;;;;;;18.83;96.99;100237.66;4933861;29;20436;-84
2023/04/22 10:08:15;;;;;;;11.50;6.45;;;;;;;19.23;97.31;100243.75;4894854;29;20055;-82
2023/04/22 10:10:42;;;;;;;9.00;5.50;;;;;;;19.81;87.83;100243.84;4882809;29;20032;-82
2023/04/22 10:13:08;;;;;;;7.72;5.40;;;;;;;19.86;86.52;100248.81;4887784;29;20048;-83
2023/04/22 10:15:38;;;;;;;9.25;5.40;;;;;;;20.11;86.17;100240.91;4896446;29;20108;-83
2023/04/22 10:18:07;;;;;;;9.55;6.00;;;;;;;19.78;86.07;100237.81;4895483;29;20048;-81
2023/04/22 10:20:37;;;;;;;7.75;5.70;;;;;;;20.08;85.50;100246.88;4921118;29;20511;-84
2023/04/22 10:23:04;;;;;;;9.57;5.72;;;;;;;19.90;81.51;100250.09;4915097;29;20071;-83
2023/04/22 10:25:30;;;;;;;6.90;5.53;;;;;;;20.05;83.94;100252.81;4906525;29;20028;-84
2023/04/22 10:28:07;;;;;;;10.50;5.55;;;;;;;20.29;84.67;100247.94;4905782;29;20108;-82
2023/04/22 10:30:36;;;;;;;7.20;5.55;;;;;;;20.57;81.45;100237.66;4904733;29;20028;-82
2023/04/22 10:33:20;;;;;;;8.48;5.57;;;;;;;19.94;84.44;100245.91;4886288;29;20123;-84
2023/04/22 10:36:04;;;;;;;7.97;5.18;;;;;;;19.94;89.74;100253.34;4902688;29;20053;-84
2023/04/22 10:38:33;;;;;;;7.68;5.30;;;;;;;20.16;92.64;100243.09;4887287;29;20056;-84
2023/04/22 10:40:59;;;;;;;11.77;5.53;;;;;;;20.61;86.88;100249.28;4895479;29;20103;-84
2023/04/22 10:43:57;;;;;;;16.52;6.00;;;;;;;20.94;86.20;100257.03;4872086;29;20063;-83
2023/04/22 10:46:31;;;;;;;7.45;5.35;;;;;;;20.76;82.04;100257.53;4898917;29;20059;-85
2023/04/22 10:48:58;;;;;;;9.90;5.97;;;;;;;20.89;82.64;100252.06;4910185;29;20036;-84
2023/04/22 10:51:45;;;;;;;9.02;5.90;;;;;;;20.73;84.33;100253.22;4875024;29;20037;-84
2023/04/22 10:54:26;;;;;;;9.55;6.05;;;;;;;20.33;86.08;100229.78;4898331;29;20036;-82
2023/04/22 10:57:02;;;;;;;10.52;5.18;;;;;;;20.37;86.26;100236.66;4881143;29;20568;-82
2023/04/22 10:59:29;;;;;;;6.72;5.32;;;;;;;20.26;90.11;100224.16;4871377;29;20041;-84
2023/04/22 11:01:59;;;;;;;10.68;6.28;;;;;;;20.68;85.83;100225.16;4888733;29;20028;-79
2023/04/22 11:04:25;;;;;;;11.13;6.38;;;;;;;20.80;85.50;100232.94;4884345;29;20113;-78
2023/04/22 11:07:25;;;;;;;9.63;5.20;;;;;;;20.31;84.42;100232.75;4899881;29;20037;-78
2023/04/22 11:10:14;;;;;;;7.55;5.78;;;;;;;20.07;89.36;100228.50;4867784;29;20405;-78